Hawk — LAGF7 — position and weather

sailwx.info

Track history (hours):
 
Tides and Currents Weather Stations Pressure Air Temp Water Temp Dewpoint Dewpoint Depression Visibility Wind Speed Wind Dir Waves Ship Positions

Hawk

Last reported at 2014-Oct-24 14:33 UTC. Time now 2014-Oct-24 15:35 UTC.
Position N 36°05' W 005°14'.

Length 223 m; draft 8.7 m.

Type: Cargo ship. MMSI: 259848000.

Date/timePositionNaut miles runAvg speedWind from/ knotsBaromVisibWave heightAir tempDewpointWater temp
2014-Oct-24 14:33N 36°05' W 005°14'1 1.0
2014-Oct-24 13:33N 36°04' W 005°15'1 1.1
2014-Oct-24 12:33N 36°05' W 005°16'1 0.7
2014-Oct-24 11:33N 36°06' W 005°16'4 3.7
2014-Oct-24 10:33N 36°05' W 005°20'6 6.3
2014-Oct-24 09:33N 35°59' W 005°24'7811.1
2014-Oct-24 02:33N 36°01' W 007°00'2711.5
2014-Oct-24 00:14N 36°08' W 007°32'4711.8
2014-Oct-23 20:18N 36°22' W 008°27'911.6
2014-Oct-23 19:33N 36°24' W 008°38'1212.0
2014-Oct-23 18:33N 36°28' W 008°52'1211.7
2014-Oct-23 17:33N 36°31' W 009°06'2611.8
2014-Oct-23 15:20N 36°46' W 009°32'1213.2
2014-Oct-23 14:25N 36°58' W 009°36'1112.3
2014-Oct-23 13:33N 37°09' W 009°39'1212.1
2014-Oct-23 12:33N 37°20' W 009°43'1212.0
2014-Oct-23 11:33N 37°32' W 009°46'1212.0
2014-Oct-23 10:33N 37°44' W 009°49'1212.0
2014-Oct-23 09:33N 37°55' W 009°53'1211.9
2014-Oct-23 08:33N 38°07' W 009°56'1212.0
2014-Oct-23 07:33N 38°19' W 009°60'1212.2
2014-Oct-23 06:33N 38°30' W 010°04'1212.2
2014-Oct-23 05:33N 38°42' W 010°07'1312.6
2014-Oct-23 04:33N 38°55' W 010°07'1312.8
2014-Oct-23 03:33N 39°08' W 010°08'1212.3
2014-Oct-23 02:33N 39°20' W 010°08'1212.1
2014-Oct-23 01:33N 39°32' W 010°11'1212.0
2014-Oct-23 00:33N 39°44' W 010°14'  
2014-Oct-16 21:07N 50°01' W 002°52'4 7.0
2014-Oct-16 20:33N 50°02' W 002°46'7 6.6
2014-Oct-16 19:33N 50°04' W 002°36'12 8.3
2014-Oct-16 18:09N 50°07' W 002°19'712.6
2014-Oct-16 17:33N 50°09' W 002°08'42 9.4
2014-Oct-16 13:06N 50°21' W 001°05'40 1.7
2014-Oct-15 13:03N 50°33' W 000°05'2 3.8
2014-Oct-15 12:30N 50°33' W 000°02'4 4.2
2014-Oct-15 11:33N 50°34' E 000°04'5 4.8
2014-Oct-15 10:33N 50°35' E 000°11'6 5.6
2014-Oct-15 09:33N 50°37' E 000°20'6 6.3
2014-Oct-15 08:33N 50°38' E 000°30'1111.0
2014-Oct-15 07:33N 50°43' E 000°45'1312.4
2014-Oct-15 06:31N 50°51' E 001°01'5 5.7
2014-Oct-15 05:33N 50°54' E 001°08'6 6.5
2014-Oct-15 04:34N 50°58' E 001°16'6 5.7
2014-Oct-15 03:33N 51°02' E 001°23'6 5.6
2014-Oct-15 02:33N 51°06' E 001°30'6 5.6
2014-Oct-15 01:33N 51°09' E 001°37'7 6.9
2014-Oct-15 00:34N 51°13' E 001°45'7 7.4
2014-Oct-14 23:33N 51°20' E 001°50'7 6.9
2014-Oct-14 22:33N 51°26' E 001°54'6 5.6
2014-Oct-14 21:33N 51°31' E 001°60'6 5.9
2014-Oct-14 20:33N 51°35' E 002°06'6 6.3
2014-Oct-14 19:33N 51°40' E 002°13'6 5.8
2014-Oct-14 18:33N 51°44' E 002°20'6 5.8
2014-Oct-14 17:32N 51°48' E 002°26'6 5.8
2014-Oct-14 16:26N 51°53' E 002°33'  
Track history (hours):
 
Tides and Currents Weather Stations Pressure Air Temp Water Temp Dewpoint Dewpoint Depression Visibility Wind Speed Wind Dir Waves Ship Positions

Hawk

Last reported at 2014-Oct-24 14:33 UTC. Time now 2014-Oct-24 15:35 UTC.
Position N 36°05' W 005°14'.

Length 223 m; draft 8.7 m.

Type: Cargo ship. MMSI: 259848000.

Date/timePositionNaut miles runAvg speedWind from/ knotsBaromVisibWave heightAir tempDewpointWater temp
2014-Oct-24 14:33N 36°05' W 005°14'1 1.0
2014-Oct-24 13:33N 36°04' W 005°15'1 1.1
2014-Oct-24 12:33N 36°05' W 005°16'1 0.7
2014-Oct-24 11:33N 36°06' W 005°16'4 3.7
2014-Oct-24 10:33N 36°05' W 005°20'6 6.3
2014-Oct-24 09:33N 35°59' W 005°24'7811.1
2014-Oct-24 02:33N 36°01' W 007°00'2711.5
2014-Oct-24 00:14N 36°08' W 007°32'4711.8
2014-Oct-23 20:18N 36°22' W 008°27'911.6
2014-Oct-23 19:33N 36°24' W 008°38'1212.0
2014-Oct-23 18:33N 36°28' W 008°52'1211.7
2014-Oct-23 17:33N 36°31' W 009°06'2611.8
2014-Oct-23 15:20N 36°46' W 009°32'1213.2
2014-Oct-23 14:25N 36°58' W 009°36'1112.3
2014-Oct-23 13:33N 37°09' W 009°39'1212.1
2014-Oct-23 12:33N 37°20' W 009°43'1212.0
2014-Oct-23 11:33N 37°32' W 009°46'1212.0
2014-Oct-23 10:33N 37°44' W 009°49'1212.0
2014-Oct-23 09:33N 37°55' W 009°53'1211.9
2014-Oct-23 08:33N 38°07' W 009°56'1212.0
2014-Oct-23 07:33N 38°19' W 009°60'1212.2
2014-Oct-23 06:33N 38°30' W 010°04'1212.2
2014-Oct-23 05:33N 38°42' W 010°07'1312.6
2014-Oct-23 04:33N 38°55' W 010°07'1312.8
2014-Oct-23 03:33N 39°08' W 010°08'1212.3
2014-Oct-23 02:33N 39°20' W 010°08'1212.1
2014-Oct-23 01:33N 39°32' W 010°11'1212.0
2014-Oct-23 00:33N 39°44' W 010°14'  
2014-Oct-16 21:07N 50°01' W 002°52'4 7.0
2014-Oct-16 20:33N 50°02' W 002°46'7 6.6
2014-Oct-16 19:33N 50°04' W 002°36'12 8.3
2014-Oct-16 18:09N 50°07' W 002°19'712.6
2014-Oct-16 17:33N 50°09' W 002°08'42 9.4
2014-Oct-16 13:06N 50°21' W 001°05'40 1.7
2014-Oct-15 13:03N 50°33' W 000°05'2 3.8
2014-Oct-15 12:30N 50°33' W 000°02'4 4.2
2014-Oct-15 11:33N 50°34' E 000°04'5 4.8
2014-Oct-15 10:33N 50°35' E 000°11'6 5.6
2014-Oct-15 09:33N 50°37' E 000°20'6 6.3
2014-Oct-15 08:33N 50°38' E 000°30'1111.0
2014-Oct-15 07:33N 50°43' E 000°45'1312.4
2014-Oct-15 06:31N 50°51' E 001°01'5 5.7
2014-Oct-15 05:33N 50°54' E 001°08'6 6.5
2014-Oct-15 04:34N 50°58' E 001°16'6 5.7
2014-Oct-15 03:33N 51°02' E 001°23'6 5.6
2014-Oct-15 02:33N 51°06' E 001°30'6 5.6
2014-Oct-15 01:33N 51°09' E 001°37'7 6.9
2014-Oct-15 00:34N 51°13' E 001°45'7 7.4
2014-Oct-14 23:33N 51°20' E 001°50'7 6.9
2014-Oct-14 22:33N 51°26' E 001°54'6 5.6
2014-Oct-14 21:33N 51°31' E 001°60'6 5.9
2014-Oct-14 20:33N 51°35' E 002°06'6 6.3
2014-Oct-14 19:33N 51°40' E 002°13'6 5.8
2014-Oct-14 18:33N 51°44' E 002°20'6 5.8
2014-Oct-14 17:32N 51°48' E 002°26'6 5.8
2014-Oct-14 16:26N 51°53' E 002°33'  

Dump ship's entire track history